Terminal Aerodrome Forecast
Issued by NWS

Home | Current Version | Previous Version | Text Only | Print | Product List | Glossary On
Versions: 1 2 3 4 5 6 7 8 9 10 11 12 13 14 15 16 17 18 19 20 21
000
FTUS43 KDLH 202300
TAFHIB
TAF
KHIB 202335Z 2100/2124 18006KT 5SM BR OVC006
      TEMPO 2100/2103 3SM -FZDZ BR OVC004
     FM210600 15004KT 2SM BR OVC004
      TEMPO 2109/2112 3SM -FZDZSN OVC006
     FM211900 15006KT 5SM BR OVC007=

USA.gov is the U.S. government's official web portal to all federal, state and local government web resources and services.